Time;durP1;ratioP1;P1;durP2;ratioP2;P2;SDS_P1;SDS_P2;PMS_P1;PMS_P2;Temp;Humidity;BMP_temperature;BMP_pressure;BME280_temperature;BME280_humidity;BME280_pressure;Samples;Min_cycle;Max_cycle;Signal;HPM_P1;HPM_P2
2022/09/21 00:01:17;;;;;;;6.43;1.80;;;13.70;1.00;;;;;;5029662;28;20225;-56
2022/09/21 00:03:45;;;;;;;3.43;2.50;;;13.60;1.00;;;;;;5025384;28;20201;-54
2022/09/21 00:06:15;;;;;;;2.73;1.67;;;13.60;1.00;;;;;;5022888;28;20236;-53
2022/09/21 00:08:44;;;;;;;2.90;1.77;;;13.50;1.00;;;;;;5018707;28;20872;-52
2022/09/21 00:11:25;;;;;;;4.27;1.87;;;13.50;1.00;;;;;;5025125;28;20266;-53
2022/09/21 00:14:03;;;;;;;4.13;1.90;;;13.50;1.00;;;;;;5024342;28;20198;-54
2022/09/21 00:16:30;;;;;;;5.33;2.00;;;13.50;99.90;;;;;;5022368;28;20687;-54
2022/09/21 00:18:59;;;;;;;2.93;1.57;;;13.40;1.00;;;;;;5025609;28;20656;-54
2022/09/21 00:21:27;;;;;;;3.63;1.90;;;13.30;1.00;;;;;;5023574;28;20214;-53
2022/09/21 00:23:54;;;;;;;4.03;2.07;;;13.20;99.90;;;;;;5027486;28;20255;-54
2022/09/21 00:26:23;;;;;;;2.87;1.93;;;13.00;99.90;;;;;;5026944;28;20646;-53
2022/09/21 00:28:53;;;;;;;7.17;2.13;;;12.70;99.90;;;;;;5024052;28;20213;-54
2022/09/21 00:31:21;;;;;;;5.30;2.30;;;12.70;1.00;;;;;;5024751;28;20391;-54
2022/09/21 00:33:50;;;;;;;2.87;2.13;;;12.60;1.00;;;;;;5025296;28;20206;-54
2022/09/21 00:36:19;;;;;;;2.90;2.47;;;12.80;1.00;;;;;;5023576;28;20220;-52
2022/09/21 00:38:51;;;;;;;2.93;1.90;;;12.90;1.00;;;;;;5026608;28;20260;-53
2022/09/21 00:41:19;;;;;;;3.80;2.10;;;13.00;1.00;;;;;;5027591;28;20768;-54
2022/09/21 00:44:07;;;;;;;2.50;2.20;;;13.00;99.90;;;;;;5026291;28;20224;-53
2022/09/21 00:46:38;;;;;;;3.77;2.10;;;13.10;99.90;;;;;;5022109;28;20254;-53
2022/09/21 00:49:06;;;;;;;2.60;2.07;;;13.10;72.90;;;;;;5025953;28;20200;-54
2022/09/21 00:51:34;;;;;;;4.33;2.23;;;13.10;90.60;;;;;;5024178;28;20219;-53
2022/09/21 00:54:06;;;;;;;6.50;2.00;;;13.10;1.00;;;;;;5023907;28;20604;-54
2022/09/21 00:56:35;;;;;;;5.47;1.80;;;13.10;99.90;;;;;;5025895;28;20624;-54
2022/09/21 00:59:03;;;;;;;4.80;2.10;;;13.10;1.00;;;;;;5026012;28;20283;-56
2022/09/21 01:01:31;;;;;;;4.60;2.10;;;13.00;99.90;;;;;;5024236;28;20269;-54
2022/09/21 01:03:59;;;;;;;3.80;2.27;;;13.10;99.90;;;;;;5023063;28;20645;-53
2022/09/21 01:06:26;;;;;;;4.90;2.17;;;13.00;99.90;;;;;;5022873;28;20189;-54
2022/09/21 01:08:57;;;;;;;7.90;2.70;;;13.10;1.00;;;;;;5026633;28;20209;-54
2022/09/21 01:11:55;;;;;;;9.20;2.30;;;13.00;99.90;;;;;;5023666;28;20603;-56
2022/09/21 01:14:28;;;;;;;4.90;2.50;;;12.90;1.00;;;;;;5027538;28;20631;-54
2022/09/21 01:17:26;;;;;;;4.90;2.30;;;12.90;17.10;;;;;;5024251;28;20611;-54
2022/09/21 01:20:02;;;;;;;5.27;2.27;;;13.00;1.00;;;;;;5014853;28;20600;-54
2022/09/21 01:22:35;;;;;;;5.17;2.23;;;13.00;1.00;;;;;;5025252;28;20234;-54
2022/09/21 01:25:33;;;;;;;2.57;2.03;;;12.90;1.00;;;;;;5023235;28;20828;-54
2022/09/21 01:28:12;;;;;;;3.47;2.03;;;12.90;1.00;;;;;;5026143;28;20623;-54
2022/09/21 01:30:42;;;;;;;5.20;2.60;;;12.80;1.00;;;;;;5027283;28;20200;-54
2022/09/21 01:33:26;;;;;;;6.27;2.90;;;12.80;99.90;;;;;;5025087;28;20292;-53
2022/09/21 01:36:04;;;;;;;4.87;2.67;;;12.80;99.90;;;;;;5021205;28;20247;-54
2022/09/21 01:38:42;;;;;;;3.87;2.40;;;12.80;1.00;;;;;;5019398;28;20236;-53
2022/09/21 01:41:13;;;;;;;2.60;2.17;;;12.80;1.00;;;;;;5026529;28;20193;-53
2022/09/21 01:43:47;;;;;;;7.10;2.60;;;12.80;1.00;;;;;;5018066;28;20225;-54
2022/09/21 01:46:18;;;;;;;3.50;2.63;;;12.80;99.90;;;;;;5005810;28;20215;-53
2022/09/21 01:48:55;;;;;;;3.90;2.43;;;12.70;99.90;;;;;;5025201;28;20198;-54
2022/09/21 01:51:26;;;;;;;5.73;2.57;;;12.70;99.90;;;;;;5025060;28;20566;-54
2022/09/21 01:53:59;;;;;;;5.23;2.43;;;12.60;1.00;;;;;;5023737;28;20206;-53
2022/09/21 01:56:39;;;;;;;5.13;2.93;;;12.60;99.90;;;;;;5023747;28;20628;-53
2022/09/21 01:59:11;;;;;;;5.07;2.50;;;12.60;1.00;;;;;;5023181;28;20224;-54
2022/09/21 02:01:45;;;;;;;4.57;2.60;;;12.60;1.00;;;;;;5022998;28;20888;-52
2022/09/21 02:04:13;;;;;;;5.37;2.93;;;12.60;9.60;;;;;;5023720;28;21909;-53
2022/09/21 02:06:43;;;;;;;5.13;2.43;;;12.70;99.90;;;;;;5026342;28;20197;-54
2022/09/21 02:09:11;;;;;;;3.63;2.10;;;12.60;1.00;;;;;;5024365;28;20844;-55
2022/09/21 02:11:41;;;;;;;4.80;2.50;;;12.60;99.90;;;;;;5022252;28;20656;-53
2022/09/21 02:14:15;;;;;;;5.23;2.30;;;12.60;1.00;;;;;;5020984;28;20200;-52
2022/09/21 02:16:55;;;;;;;7.10;2.50;;;12.60;1.00;;;;;;5021662;28;20200;-54
2022/09/21 02:19:54;;;;;;;4.77;2.97;;;12.50;1.00;;;;;;5024460;28;20291;-54
2022/09/21 02:22:37;;;;;;;3.40;2.60;;;12.50;7.80;;;;;;5025265;28;20737;-54
2022/09/21 02:25:09;;;;;;;6.30;2.30;;;12.50;12.40;;;;;;5021521;28;20721;-54
2022/09/21 02:27:54;;;;;;;6.00;3.93;;;12.50;1.00;;;;;;5025101;28;20692;-53
2022/09/21 02:30:24;;;;;;;6.70;2.43;;;12.40;1.00;;;;;;5020203;28;20625;-53
2022/09/21 02:33:03;;;;;;;7.73;2.60;;;12.40;1.00;;;;;;5022595;28;20289;-52
2022/09/21 02:35:38;;;;;;;8.37;3.00;;;12.40;99.90;;;;;;5024680;28;20201;-53
2022/09/21 02:38:20;;;;;;;7.87;2.77;;;12.40;1.00;;;;;;5022783;28;20762;-55
2022/09/21 02:40:54;;;;;;;5.23;2.73;;;12.30;1.00;;;;;;5024702;28;20204;-54
2022/09/21 02:43:24;;;;;;;2.50;2.07;;;12.30;1.00;;;;;;5021317;28;20199;-57
2022/09/21 02:46:15;;;;;;;3.83;2.20;;;12.30;1.00;;;;;;5019263;28;20208;-53
2022/09/21 02:48:49;;;;;;;5.93;2.23;;;12.30;99.90;;;;;;5018050;28;20579;-56
2022/09/21 02:51:23;;;;;;;5.47;2.40;;;12.20;1.00;;;;;;5016751;28;20201;-54
2022/09/21 02:53:53;;;;;;;4.70;2.40;;;12.20;1.00;;;;;;5021176;28;20199;-54
2022/09/21 02:56:21;;;;;;;6.77;2.33;;;12.10;1.00;;;;;;5026097;28;20673;-54
2022/09/21 02:58:55;;;;;;;4.03;2.33;;;12.10;1.00;;;;;;5020508;28;20217;-54
2022/09/21 03:01:25;;;;;;;3.67;2.27;;;12.10;1.00;;;;;;5017244;28;20221;-54
2022/09/21 03:03:52;;;;;;;4.17;2.10;;;12.10;1.00;;;;;;5023096;28;20295;-54
2022/09/21 03:06:19;;;;;;;3.93;3.07;;;12.00;1.00;;;;;;5024366;28;20197;-56
2022/09/21 03:08:46;;;;;;;5.43;2.20;;;12.00;99.90;;;;;;5023348;28;20329;-53
2022/09/21 03:11:17;;;;;;;6.20;2.33;;;12.00;99.90;;;;;;5025017;28;20193;-54
2022/09/21 03:13:43;;;;;;;4.67;2.67;;;11.90;99.90;;;;;;5023312;28;20202;-54
2022/09/21 03:16:11;;;;;;;5.97;2.73;;;11.90;99.90;;;;;;5021368;28;20207;-54
2022/09/21 03:18:39;;;;;;;3.97;2.37;;;11.90;99.90;;;;;;5021444;28;20217;-54
2022/09/21 03:21:06;;;;;;;4.97;2.60;;;11.90;99.90;;;;;;5023724;28;20205;-54
2022/09/21 03:23:32;;;;;;;3.83;2.23;;;11.90;99.90;;;;;;5021825;28;20193;-54
2022/09/21 03:25:59;;;;;;;4.30;2.37;;;11.80;99.90;;;;;;5022281;28;20194;-54
2022/09/21 03:28:26;;;;;;;5.23;2.93;;;11.80;99.90;;;;;;5026015;28;20295;-55
2022/09/21 03:30:53;;;;;;;3.03;2.33;;;11.70;1.00;;;;;;5023252;28;20203;-53
2022/09/21 03:33:20;;;;;;;5.43;2.50;;;11.70;1.00;;;;;;5017604;28;20239;-53
2022/09/21 03:35:47;;;;;;;6.07;2.60;;;11.70;1.00;;;;;;5022244;28;20215;-54
2022/09/21 03:38:15;;;;;;;2.63;2.10;;;11.80;1.00;;;;;;5024369;28;20212;-54
2022/09/21 03:40:49;;;;;;;3.33;2.23;;;11.70;99.90;;;;;;5023542;28;20200;-52
2022/09/21 03:43:17;;;;;;;2.73;2.30;;;11.60;99.90;;;;;;5023631;28;20200;-54
2022/09/21 03:45:44;;;;;;;4.60;2.30;;;11.60;1.00;;;;;;5019594;28;20559;-54
2022/09/21 03:48:11;;;;;;;5.27;2.50;;;11.60;99.90;;;;;;5022455;28;20711;-54
2022/09/21 03:50:38;;;;;;;4.90;2.60;;;11.60;99.90;;;;;;5021370;28;20651;-53
2022/09/21 03:53:06;;;;;;;3.93;2.67;;;11.60;99.90;;;;;;5021273;28;20200;-54
2022/09/21 03:55:33;;;;;;;3.77;2.30;;;11.50;99.90;;;;;;5023465;28;20556;-53
2022/09/21 03:58:00;;;;;;;3.10;2.23;;;11.50;99.90;;;;;;5018669;28;21835;-55
2022/09/21 04:00:28;;;;;;;2.63;2.03;;;11.50;99.90;;;;;;5024639;28;20245;-55
2022/09/21 04:02:55;;;;;;;3.07;2.37;;;11.50;99.90;;;;;;5016378;28;20291;-54
2022/09/21 04:05:22;;;;;;;3.20;2.00;;;11.50;93.80;;;;;;5023083;28;20197;-55
2022/09/21 04:07:49;;;;;;;3.43;2.23;;;11.50;1.00;;;;;;5026134;28;20201;-54
2022/09/21 04:10:20;;;;;;;5.87;2.70;;;11.50;1.00;;;;;;5025439;28;20212;-55
2022/09/21 04:12:46;;;;;;;3.90;2.60;;;11.50;99.90;;;;;;5022352;28;20644;-54
2022/09/21 04:15:18;;;;;;;5.53;3.00;;;11.50;1.00;;;;;;5027726;28;20204;-59
2022/09/21 04:17:49;;;;;;;5.93;2.50;;;11.50;1.00;;;;;;5026235;28;20254;-57
2022/09/21 04:20:16;;;;;;;6.23;2.53;;;11.50;1.00;;;;;;5023884;28;20209;-54
2022/09/21 04:22:45;;;;;;;4.00;2.20;;;11.50;1.00;;;;;;5027022;28;20548;-54
2022/09/21 04:25:11;;;;;;;6.63;2.97;;;11.50;1.00;;;;;;5026841;28;20200;-55
2022/09/21 04:27:38;;;;;;;6.10;2.63;;;11.50;1.00;;;;;;5023425;28;20195;-54
2022/09/21 04:30:07;;;;;;;5.67;2.23;;;11.50;1.00;;;;;;5025912;28;20593;-55
2022/09/21 04:32:33;;;;;;;3.27;2.60;;;11.50;1.00;;;;;;5026353;28;20711;-54
2022/09/21 04:35:00;;;;;;;4.73;2.67;;;11.40;99.90;;;;;;5024597;28;20221;-54
2022/09/21 04:37:27;;;;;;;4.13;2.73;;;11.40;99.90;;;;;;5028561;28;20193;-53
2022/09/21 04:39:54;;;;;;;4.30;2.70;;;11.40;1.00;;;;;;5025094;28;20277;-54
2022/09/21 04:42:22;;;;;;;4.07;2.70;;;11.40;1.00;;;;;;5025285;28;20767;-54
2022/09/21 04:44:50;;;;;;;5.27;3.03;;;11.30;1.00;;;;;;5026103;28;20203;-55
2022/09/21 04:47:18;;;;;;;3.63;2.50;;;11.40;1.00;;;;;;5030004;28;20258;-54
2022/09/21 04:49:44;;;;;;;3.97;2.40;;;11.30;1.00;;;;;;5024982;28;20197;-54
2022/09/21 04:52:11;;;;;;;4.43;2.63;;;11.30;1.00;;;;;;5029076;28;20211;-53
2022/09/21 04:54:45;;;;;;;3.83;2.80;;;11.30;1.00;;;;;;5021552;28;20194;-54
2022/09/21 04:57:13;;;;;;;5.87;2.73;;;11.20;1.00;;;;;;5027401;28;20559;-53
2022/09/21 04:59:39;;;;;;;5.37;2.60;;;11.20;1.00;;;;;;5025397;28;20218;-53
2022/09/21 05:02:06;;;;;;;3.87;2.63;;;11.20;1.00;;;;;;5025740;28;20230;-54
2022/09/21 05:04:33;;;;;;;4.03;2.67;;;11.20;1.00;;;;;;5024831;28;20203;-53
2022/09/21 05:07:00;;;;;;;8.07;3.00;;;11.10;1.00;;;;;;5021651;28;20201;-52
2022/09/21 05:12:12;;;;;;;4.37;2.60;;;11.10;1.00;;;;;;5024630;28;20203;-53
2022/09/21 05:14:39;;;;;;;4.37;2.80;;;11.10;1.00;;;;;;5027314;28;20623;-52
2022/09/21 05:17:06;;;;;;;5.53;2.40;;;11.10;1.00;;;;;;5026039;28;20236;-54
2022/09/21 05:19:33;;;;;;;7.07;2.93;;;11.10;1.00;;;;;;5019602;28;20699;-54
2022/09/21 05:22:00;;;;;;;5.07;2.73;;;11.10;1.00;;;;;;5026005;28;20198;-54
2022/09/21 05:24:27;;;;;;;4.20;3.27;;;11.10;1.00;;;;;;5012780;28;20286;-54
2022/09/21 05:26:54;;;;;;;6.00;2.47;;;11.10;1.00;;;;;;5010863;28;20557;-55
2022/09/21 05:29:21;;;;;;;6.03;2.93;;;11.00;1.00;;;;;;5009282;28;20240;-55
2022/09/21 05:32:13;;;;;;;5.77;2.90;;;11.00;1.00;;;;;;5013821;28;20210;-54
2022/09/21 05:34:54;;;;;;;6.83;3.00;;;10.90;1.00;;;;;;5013994;28;20668;-54
2022/09/21 05:37:37;;;;;;;4.47;3.20;;;11.00;1.00;;;;;;4660768;28;10000586;-54
2022/09/21 05:40:05;;;;;;;5.60;2.90;;;11.00;1.00;;;;;;5009183;28;20273;-54
2022/09/21 05:42:33;;;;;;;4.57;2.80;;;11.00;1.00;;;;;;5015363;28;20933;-53
2022/09/21 05:45:00;;;;;;;7.43;3.40;;;11.00;1.00;;;;;;5000590;28;20631;-53
2022/09/21 05:47:38;;;;;;;5.57;3.40;;;11.00;1.00;;;;;;5014636;28;20643;-54
2022/09/21 05:50:39;;;;;;;7.40;3.77;;;11.10;1.00;;;;;;5017089;28;20218;-55
2022/09/21 05:53:22;;;;;;;4.83;3.20;;;11.10;1.00;;;;;;5011196;28;20239;-55
2022/09/21 05:55:57;;;;;;;9.57;3.00;;;11.10;1.00;;;;;;5014749;28;20209;-54
2022/09/21 05:59:12;;;;;;;6.43;3.50;;;11.00;1.00;;;;;;5017091;28;20213;-53
2022/09/21 06:01:57;;;;;;;6.50;3.07;;;11.10;58.60;;;;;;5012028;28;20222;-54
2022/09/21 06:04:24;;;;;;;5.50;3.47;;;11.10;97.00;;;;;;5014707;28;20653;-53
2022/09/21 06:06:51;;;;;;;5.03;3.43;;;11.10;50.40;;;;;;5016631;28;20200;-53
2022/09/21 06:09:19;;;;;;;5.27;3.10;;;11.10;49.30;;;;;;5011114;28;20203;-53
2022/09/21 06:11:47;;;;;;;5.60;3.23;;;11.10;83.60;;;;;;5022338;28;20251;-53
2022/09/21 06:14:13;;;;;;;7.97;3.70;;;11.10;99.90;;;;;;5015058;28;20204;-54
2022/09/21 06:16:42;;;;;;;7.40;3.17;;;11.00;99.90;;;;;;5006716;28;20209;-52
2022/09/21 06:19:12;;;;;;;4.70;3.30;;;11.10;99.90;;;;;;5011943;28;20333;-53
2022/09/21 06:21:39;;;;;;;4.97;2.57;;;11.00;99.90;;;;;;5020553;28;20514;-54
2022/09/21 06:24:06;;;;;;;5.00;3.33;;;11.10;99.90;;;;;;5015455;28;20199;-53
2022/09/21 06:26:34;;;;;;;6.57;3.77;;;11.10;99.90;;;;;;5027034;28;20717;-54
2022/09/21 06:29:00;;;;;;;8.63;3.93;;;11.20;99.90;;;;;;5017302;28;20675;-54
2022/09/21 06:31:28;;;;;;;5.93;3.57;;;11.20;99.90;;;;;;5013132;28;20718;-53
2022/09/21 06:33:55;;;;;;;4.80;3.60;;;11.20;99.90;;;;;;5011050;28;20223;-53
2022/09/21 06:36:22;;;;;;;6.73;3.80;;;11.30;99.90;;;;;;5015298;28;20697;-52
2022/09/21 06:38:48;;;;;;;8.70;4.13;;;11.40;99.90;;;;;;5016468;28;21956;-52
2022/09/21 06:41:15;;;;;;;6.40;3.47;;;11.50;99.90;;;;;;5008488;28;20238;-53
2022/09/21 06:43:47;;;;;;;5.33;3.63;;;11.60;99.90;;;;;;5009493;28;20221;-53
2022/09/21 06:46:13;;;;;;;6.17;4.17;;;11.70;22.50;;;;;;5007837;28;20211;-53
2022/09/21 06:48:40;;;;;;;5.50;3.33;;;11.80;1.00;;;;;;5012059;28;20589;-54
2022/09/21 06:51:11;;;;;;;7.07;3.30;;;11.80;1.00;;;;;;5010272;28;20605;-53
2022/09/21 06:53:38;;;;;;;9.83;3.70;;;11.90;1.00;;;;;;5008691;28;20729;-54
2022/09/21 06:56:07;;;;;;;6.20;3.40;;;11.90;1.00;;;;;;5010692;28;20211;-54
2022/09/21 06:58:36;;;;;;;6.97;3.57;;;12.00;99.90;;;;;;5013175;28;20339;-54
2022/09/21 07:01:11;;;;;;;7.47;3.60;;;12.10;99.90;;;;;;5009098;28;20658;-54
2022/09/21 07:03:40;;;;;;;7.27;3.20;;;12.10;99.90;;;;;;5009769;28;20201;-54
2022/09/21 07:06:10;;;;;;;6.70;3.80;;;12.20;99.90;;;;;;5009537;28;20200;-52
2022/09/21 07:08:38;;;;;;;7.50;4.00;;;12.30;99.90;;;;;;5015888;28;20280;-55
2022/09/21 07:11:26;;;;;;;6.27;3.70;;;12.40;99.90;;;;;;5018023;28;20905;-54
2022/09/21 07:13:53;;;;;;;8.90;3.73;;;12.40;99.90;;;;;;5015086;28;20246;-54
2022/09/21 07:16:21;;;;;;;7.53;3.77;;;12.60;99.90;;;;;;5015792;28;20195;-54
2022/09/21 07:18:47;;;;;;;12.50;3.97;;;12.70;99.90;;;;;;5017248;28;20218;-54
2022/09/21 07:21:15;;;;;;;4.77;3.30;;;12.70;99.90;;;;;;5017124;28;20188;-54
2022/09/21 07:23:42;;;;;;;6.60;3.20;;;12.80;99.90;;;;;;5016559;28;20200;-53
2022/09/21 07:26:12;;;;;;;6.20;3.10;;;12.70;99.90;;;;;;5017736;28;20611;-54
2022/09/21 07:28:39;;;;;;;7.27;3.43;;;12.80;99.90;;;;;;5014359;28;20200;-53
2022/09/21 07:31:14;;;;;;;4.40;2.93;;;13.00;99.90;;;;;;5009587;28;20297;-54
2022/09/21 07:33:45;;;;;;;6.40;3.03;;;13.10;99.90;;;;;;5014663;28;20890;-53
2022/09/21 07:36:13;;;;;;;5.47;2.90;;;13.30;99.90;;;;;;5016007;28;20227;-54
2022/09/21 07:38:42;;;;;;;5.77;2.70;;;13.20;99.90;;;;;;5014701;28;20575;-54
2022/09/21 07:41:11;;;;;;;5.40;3.07;;;13.30;99.90;;;;;;5017025;28;20195;-53
2022/09/21 07:43:39;;;;;;;7.73;2.90;;;13.30;99.90;;;;;;5021266;28;20292;-53
2022/09/21 07:46:15;;;;;;;3.30;2.23;;;13.40;99.90;;;;;;5019046;28;20203;-53
2022/09/21 07:48:42;;;;;;;4.23;2.40;;;13.40;99.90;;;;;;5019484;28;20206;-54
2022/09/21 07:51:11;;;;;;;4.83;2.50;;;13.60;99.90;;;;;;5020633;28;20299;-53
2022/09/21 07:53:40;;;;;;;2.93;2.30;;;13.70;99.90;;;;;;5021042;28;20209;-53
2022/09/21 07:56:09;;;;;;;7.80;2.87;;;14.10;99.90;;;;;;5021529;28;20207;-53
2022/09/21 08:01:23;;;;;;;3.67;2.33;;;14.30;99.90;;;;;;5021888;28;20222;-53
2022/09/21 08:03:52;;;;;;;2.87;2.37;;;14.60;99.90;;;;;;5026791;28;20272;-53
2022/09/21 08:06:20;;;;;;;4.03;2.10;;;14.80;99.90;;;;;;5030480;28;20263;-54
2022/09/21 08:08:47;;;;;;;6.00;2.60;;;14.90;99.90;;;;;;5030473;28;20224;-54
2022/09/21 08:11:20;;;;;;;6.37;2.63;;;15.10;99.90;;;;;;5044676;28;20275;-54
2022/09/21 08:13:47;;;;;;;5.97;2.20;;;15.10;99.90;;;;;;5041224;28;20243;-54
2022/09/21 08:16:14;;;;;;;4.00;1.97;;;15.40;99.90;;;;;;5043570;28;20204;-54
2022/09/21 08:18:41;;;;;;;5.03;2.40;;;15.30;99.90;;;;;;5022453;28;20204;-53
2022/09/21 08:21:10;;;;;;;3.87;2.53;;;15.60;99.90;;;;;;5039483;28;20669;-54
2022/09/21 08:23:41;;;;;;;6.77;2.20;;;15.90;99.90;;;;;;5035991;28;20205;-54
2022/09/21 08:26:18;;;;;;;5.20;2.40;;;16.10;99.90;;;;;;5034158;28;20558;-53
2022/09/21 08:28:50;;;;;;;3.57;2.27;;;16.20;99.90;;;;;;5024274;28;20306;-54
2022/09/21 08:31:19;;;;;;;3.23;1.67;;;16.30;99.90;;;;;;5036069;28;20287;-54
2022/09/21 08:33:47;;;;;;;5.00;1.87;;;16.50;99.90;;;;;;5029102;28;20202;-54
2022/09/21 08:36:14;;;;;;;4.70;2.27;;;16.50;99.90;;;;;;5024205;28;20365;-53
2022/09/21 08:38:41;;;;;;;8.63;2.37;;;16.60;99.90;;;;;;5023326;28;20656;-54
2022/09/21 08:41:45;;;;;;;5.07;2.70;;;17.00;99.90;;;;;;5022913;28;20235;-54
2022/09/21 08:44:23;;;;;;;7.53;2.10;;;17.00;99.90;;;;;;5018489;28;20202;-54
2022/09/21 08:47:09;;;;;;;4.53;2.03;;;17.20;99.90;;;;;;5024005;28;22261;-54
2022/09/21 08:49:38;;;;;;;6.63;2.20;;;17.20;99.90;;;;;;5022732;28;20589;-54
2022/09/21 08:52:11;;;;;;;6.60;2.13;;;17.10;99.90;;;;;;5039702;28;20245;-54
2022/09/21 08:54:58;;;;;;;3.33;2.10;;;17.50;99.90;;;;;;5028199;28;20200;-54
2022/09/21 08:57:31;;;;;;;3.33;1.67;;;17.60;99.90;;;;;;5026121;28;20200;-54
2022/09/21 08:59:59;;;;;;;3.17;1.80;;;17.80;99.90;;;;;;5013224;28;20862;-54
2022/09/21 09:02:54;;;;;;;5.23;1.60;;;17.90;99.90;;;;;;5021446;28;20681;-54
2022/09/21 09:05:36;;;;;;;4.87;1.70;;;18.10;99.90;;;;;;5026377;28;20246;-55
2022/09/21 09:08:18;;;;;;;3.30;3.00;;;18.40;99.90;;;;;;5016667;28;20654;-54
2022/09/21 09:10:56;;;;;;;4.27;1.73;;;18.50;99.90;;;;;;5015311;28;20203;-54
2022/09/21 09:14:00;;;;;;;6.47;1.93;;;18.40;99.90;;;;;;5015316;28;20195;-54
2022/09/21 09:16:55;;;;;;;3.83;1.73;;;18.70;99.90;;;;;;5009646;28;20310;-53
2022/09/21 09:19:45;;;;;;;5.17;1.80;;;18.20;99.90;;;;;;5022373;28;20219;-53
2022/09/21 09:22:19;;;;;;;5.23;2.30;;;18.50;99.90;;;;;;5016775;28;20240;-54
2022/09/21 09:24:51;;;;;;;3.63;1.57;;;18.20;99.90;;;;;;5012376;28;20201;-54
2022/09/21 09:27:40;;;;;;;5.87;1.67;;;18.40;99.90;;;;;;5018650;28;20566;-54
2022/09/21 09:30:40;;;;;;;2.00;1.13;;;17.80;99.90;;;;;;5008582;28;20204;-54
2022/09/21 09:33:21;;;;;;;4.20;1.10;;;17.60;99.90;;;;;;5011284;28;20218;-54
2022/09/21 09:35:54;;;;;;;1.70;1.10;;;17.30;99.90;;;;;;5013274;28;20690;-53
2022/09/21 09:38:46;;;;;;;6.27;1.73;;;16.90;99.90;;;;;;5011344;28;20198;-54
2022/09/21 09:41:42;;;;;;;1.60;0.87;;;16.70;99.90;;;;;;5010265;28;20199;-52
2022/09/21 09:44:15;;;;;;;4.33;1.37;;;16.40;99.90;;;;;;5012253;28;20213;-52
2022/09/21 09:47:03;;;;;;;3.90;1.53;;;16.40;99.90;;;;;;5015393;28;20588;-54
2022/09/21 09:49:38;;;;;;;2.77;1.10;;;16.40;99.90;;;;;;5019168;28;20233;-53
2022/09/21 09:52:11;;;;;;;5.33;1.30;;;16.50;99.90;;;;;;5017855;28;20225;-54
2022/09/21 09:54:38;;;;;;;6.37;0.90;;;16.80;99.90;;;;;;5009911;28;20211;-56
2022/09/21 09:57:06;;;;;;;3.57;1.00;;;17.00;99.90;;;;;;5026473;28;20205;-54
2022/09/21 09:59:47;;;;;;;2.17;1.20;;;16.90;99.90;;;;;;5023472;28;20212;-53
2022/09/21 10:02:22;;;;;;;3.13;0.90;;;16.70;99.90;;;;;;5024609;28;20228;-54
2022/09/21 10:05:02;;;;;;;2.60;1.03;;;16.80;99.90;;;;;;5020150;28;20624;-54
2022/09/21 10:07:47;;;;;;;1.67;0.77;;;16.70;99.90;;;;;;5019628;28;20627;-54
2022/09/21 10:10:20;;;;;;;6.10;1.53;;;17.10;99.90;;;;;;5027697;28;20195;-53
2022/09/21 10:12:49;;;;;;;2.57;1.00;;;17.10;99.90;;;;;;5022153;28;20199;-53
2022/09/21 10:15:18;;;;;;;3.13;0.97;;;17.30;99.90;;;;;;5012417;28;20733;-54
2022/09/21 10:17:46;;;;;;;5.17;1.00;;;17.50;99.90;;;;;;5021301;28;20247;-54
2022/09/21 10:20:19;;;;;;;2.40;1.07;;;17.30;99.90;;;;;;5021210;28;20212;-54
2022/09/21 10:22:57;;;;;;;2.90;0.80;;;17.00;99.90;;;;;;5012026;28;20204;-54
2022/09/21 10:25:24;;;;;;;4.07;0.77;;;17.10;99.90;;;;;;5013515;28;20265;-54
2022/09/21 10:27:55;;;;;;;1.73;0.60;;;17.00;99.90;;;;;;5019007;28;20664;-55
2022/09/21 10:30:37;;;;;;;3.77;1.20;;;17.20;99.90;;;;;;5023552;28;20207;-54
2022/09/21 10:33:19;;;;;;;3.33;0.90;;;17.10;99.90;;;;;;5015302;28;20204;-57
2022/09/21 10:35:51;;;;;;;2.87;1.00;;;17.10;99.90;;;;;;5023957;28;20216;-53
2022/09/21 10:38:29;;;;;;;1.67;0.70;;;16.90;99.90;;;;;;5024462;28;20205;-53
2022/09/21 10:40:56;;;;;;;2.90;0.60;;;17.00;99.90;;;;;;5026401;28;20243;-52
2022/09/21 10:43:40;;;;;;;3.77;0.60;;;16.90;99.90;;;;;;5021519;28;20196;-54
2022/09/21 10:46:19;;;;;;;3.23;0.60;;;17.00;99.90;;;;;;5016144;28;20235;-53
2022/09/21 10:49:09;;;;;;;2.40;0.80;;;17.20;99.90;;;;;;5026426;28;20220;-52
2022/09/21 10:51:38;;;;;;;5.47;0.90;;;17.10;99.90;;;;;;5026458;28;20189;-53
2022/09/21 10:54:09;;;;;;;2.77;1.03;;;17.30;99.90;;;;;;5027602;28;20268;-53
2022/09/21 10:56:54;;;;;;;2.43;0.70;;;17.60;99.90;;;;;;5023230;28;20200;-52
2022/09/21 10:59:24;;;;;;;1.10;0.53;;;17.60;99.90;;;;;;5021334;28;20730;-52
2022/09/21 11:01:55;;;;;;;2.20;0.70;;;17.40;99.90;;;;;;5034027;28;20569;-51
2022/09/21 11:04:45;;;;;;;4.57;1.27;;;17.20;1.00;;;;;;5028673;28;20794;-53
2022/09/21 11:07:21;;;;;;;2.93;0.70;;;17.20;99.90;;;;;;5023019;28;20250;-53
2022/09/21 11:10:16;;;;;;;0.97;0.30;;;17.10;99.90;;;;;;5025608;28;20207;-52
2022/09/21 11:13:08;;;;;;;3.07;0.70;;;16.90;99.90;;;;;;5021254;28;20203;-54
2022/09/21 11:15:39;;;;;;;1.83;0.73;;;17.10;99.90;;;;;;5015525;28;20600;-51
2022/09/21 11:18:48;;;;;;;2.73;0.43;;;17.20;1.00;;;;;;5045365;28;20556;-53
2022/09/21 11:21:54;;;;;;;2.20;0.60;;;17.40;99.90;;;;;;5023234;28;20224;-54
2022/09/21 11:24:57;;;;;;;3.53;0.80;;;17.70;99.90;;;;;;5018784;28;20266;-53
2022/09/21 11:27:39;;;;;;;0.90;0.30;;;17.70;1.00;;;;;;5015687;28;20281;-54
2022/09/21 11:30:13;;;;;;;4.40;0.70;;;17.70;1.00;;;;;;5023375;28;20196;-54
2022/09/21 11:33:17;;;;;;;1.43;0.67;;;17.80;1.00;;;;;;5026907;28;20197;-54
2022/09/21 11:36:25;;;;;;;1.27;0.50;;;18.00;99.90;;;;;;5033151;28;20294;-53
2022/09/21 11:39:00;;;;;;;2.50;0.97;;;18.30;99.90;;;;;;5033228;28;20211;-53
2022/09/21 11:41:48;;;;;;;0.93;0.60;;;18.20;1.00;;;;;;5030436;28;20684;-53
2022/09/21 11:44:40;;;;;;;1.37;0.40;;;18.50;99.90;;;;;;5017499;28;20208;-53
2022/09/21 11:47:35;;;;;;;3.20;0.53;;;18.90;99.90;;;;;;5026957;28;20247;-53
2022/09/21 11:50:07;;;;;;;0.80;0.37;;;19.20;99.90;;;;;;5024470;28;20296;-53
2022/09/21 11:53:27;;;;;;;0.90;0.40;;;19.40;99.90;;;;;;5033609;28;20771;-53
2022/09/21 11:56:18;;;;;;;2.93;0.60;;;19.50;99.90;;;;;;5030317;28;20691;-52
2022/09/21 11:59:02;;;;;;;2.87;0.50;;;19.50;99.90;;;;;;5029234;28;20202;-53
2022/09/21 12:01:35;;;;;;;1.93;0.53;;;19.70;99.90;;;;;;5022156;28;20232;-53
2022/09/21 12:04:39;;;;;;;2.90;0.60;;;19.50;1.00;;;;;;5019541;28;20321;-53
2022/09/21 12:07:19;;;;;;;3.10;0.60;;;20.10;1.00;;;;;;5028638;28;20196;-55
2022/09/21 12:10:20;;;;;;;0.93;0.50;;;20.80;1.00;;;;;;5027828;28;20665;-54
2022/09/21 12:12:59;;;;;;;2.50;0.60;;;20.40;1.00;;;;;;5013391;28;20202;-53
2022/09/21 12:15:50;;;;;;;1.70;0.53;;;20.70;1.00;;;;;;5018031;28;20691;-53
2022/09/21 12:18:39;;;;;;;3.20;0.80;;;20.40;1.00;;;;;;5015943;28;20231;-53
2022/09/21 12:21:20;;;;;;;2.80;1.47;;;20.20;1.00;;;;;;5016218;28;20220;-53
2022/09/21 12:24:19;;;;;;;3.77;0.70;;;21.10;1.00;;;;;;5019122;28;20546;-52
2022/09/21 12:26:56;;;;;;;3.60;0.70;;;21.60;1.00;;;;;;5009828;28;20201;-51
2022/09/21 12:29:29;;;;;;;2.47;0.57;;;21.40;1.00;;;;;;5009742;28;20200;-53
2022/09/21 12:32:00;;;;;;;5.03;0.50;;;21.60;1.00;;;;;;5011852;28;20201;-54
2022/09/21 12:34:40;;;;;;;2.67;0.80;;;21.00;1.00;;;;;;5017960;28;20198;-53
2022/09/21 12:37:14;;;;;;;2.77;0.70;;;21.40;1.00;;;;;;5019435;28;20196;-54
2022/09/21 12:39:50;;;;;;;3.03;0.70;;;21.90;1.00;;;;;;5016670;28;20201;-54
2022/09/21 12:42:23;;;;;;;2.40;0.77;;;21.70;1.00;;;;;;5018174;28;20196;-53
2022/09/21 12:45:05;;;;;;;3.80;0.70;;;21.80;1.00;;;;;;5013288;28;20207;-53
2022/09/21 12:47:57;;;;;;;4.43;0.90;;;21.80;1.00;;;;;;5008842;28;20256;-56
2022/09/21 12:51:04;;;;;;;3.00;0.60;;;21.70;1.00;;;;;;5014876;28;20241;-62
2022/09/21 12:53:36;;;;;;;2.30;0.50;;;21.70;1.00;;;;;;5013597;28;20202;-52
2022/09/21 12:56:33;;;;;;;2.07;0.60;;;21.90;1.00;;;;;;5013854;28;20660;-52
2022/09/21 12:59:11;;;;;;;4.47;0.80;;;21.60;1.00;;;;;;5009828;28;20205;-53
2022/09/21 13:01:48;;;;;;;3.33;0.60;;;20.90;1.00;;;;;;5008092;28;20232;-52
2022/09/21 13:04:46;;;;;;;3.90;0.63;;;20.90;1.00;;;;;;5014474;28;20687;-54
2022/09/21 13:07:22;;;;;;;3.23;0.80;;;21.20;1.00;;;;;;5012936;28;20292;-54
2022/09/21 13:09:50;;;;;;;2.77;0.70;;;21.70;1.00;;;;;;5015103;28;20200;-53
2022/09/21 13:12:22;;;;;;;2.20;0.77;;;21.80;1.00;;;;;;5021313;28;20196;-54
2022/09/21 13:15:00;;;;;;;3.33;0.70;;;22.00;1.00;;;;;;5005025;28;20208;-53
2022/09/21 13:17:31;;;;;;;5.40;0.90;;;21.80;1.00;;;;;;5011415;28;20674;-53
2022/09/21 13:20:19;;;;;;;4.57;0.73;;;21.40;1.00;;;;;;5009213;28;20199;-53
2022/09/21 13:22:47;;;;;;;3.30;0.83;;;20.40;1.00;;;;;;5015833;28;20193;-53
2022/09/21 13:25:22;;;;;;;1.60;0.50;;;20.70;1.00;;;;;;5013515;28;20203;-53
2022/09/21 13:28:03;;;;;;;2.57;0.93;;;20.70;1.00;;;;;;5010673;28;20192;-53
2022/09/21 13:30:34;;;;;;;1.43;0.47;;;21.10;1.00;;;;;;5008993;28;20201;-53
2022/09/21 13:33:04;;;;;;;4.63;0.50;;;21.40;1.00;;;;;;5017942;28;20280;-54
2022/09/21 13:35:51;;;;;;;2.10;0.60;;;20.60;1.00;;;;;;5013589;28;20201;-53